createdAt,value
2024-02-16T00:01:05.724Z,82.18
2024-02-16T00:03:33.974Z,82.59
2024-02-16T00:06:03.032Z,82.86
2024-02-16T00:08:31.302Z,81.94
2024-02-16T00:10:59.484Z,83.09
2024-02-16T00:13:27.165Z,83.35
2024-02-16T00:15:54.764Z,83.23
2024-02-16T00:18:22.487Z,82.60
2024-02-16T00:20:50.309Z,82.89
2024-02-16T00:23:20.172Z,82.50
2024-02-16T00:25:48.333Z,83.50
2024-02-16T00:28:15.930Z,82.60
2024-02-16T00:30:43.560Z,82.21
2024-02-16T00:33:11.281Z,82.23
2024-02-16T00:35:38.969Z,81.97
2024-02-16T00:38:06.613Z,83.18
2024-02-16T00:40:37.241Z,82.70
2024-02-16T00:43:05.579Z,83.42
2024-02-16T00:45:33.278Z,83.09
2024-02-16T00:48:03.132Z,83.48
2024-02-16T00:50:30.814Z,83.25
2024-02-16T00:52:58.444Z,82.60
2024-02-16T00:55:26.042Z,82.98
2024-02-16T00:57:54.923Z,83.13
2024-02-16T01:00:24.624Z,82.77
2024-02-16T01:02:54.387Z,82.97
2024-02-16T01:05:22.073Z,83.53
2024-02-16T01:07:49.666Z,83.51
2024-02-16T01:10:17.323Z,82.93
2024-02-16T01:12:44.889Z,82.57
2024-02-16T01:15:13.931Z,82.87
2024-02-16T01:17:41.732Z,82.83
2024-02-16T01:20:13.045Z,81.86
2024-02-16T01:22:41.587Z,82.72
2024-02-16T01:25:10.463Z,83.51
2024-02-16T01:27:38.139Z,82.49
2024-02-16T01:30:06.663Z,82.68
2024-02-16T01:32:36.211Z,82.42
2024-02-16T01:35:04.196Z,81.86
2024-02-16T01:37:32.560Z,82.25
2024-02-16T01:40:00.216Z,82.85
2024-02-16T01:42:27.889Z,82.19
2024-02-16T01:44:55.588Z,83.08
2024-02-16T01:47:23.257Z,82.35
2024-02-16T01:49:52.352Z,82.66
2024-02-16T01:52:20.591Z,82.19
2024-02-16T01:54:47.519Z,82.63
2024-02-16T01:57:15.489Z,82.27
2024-02-16T01:59:43.280Z,82.98
2024-02-16T02:02:10.905Z,82.68
2024-02-16T02:04:38.930Z,82.96
2024-02-16T02:07:14.816Z,82.37
2024-02-16T02:09:42.514Z,83.81
2024-02-16T02:12:10.489Z,83.25
2024-02-16T02:14:38.707Z,82.60
2024-02-16T02:17:06.488Z,82.07
2024-02-16T02:19:34.484Z,82.64
2024-02-16T02:22:02.709Z,82.73
2024-02-16T02:24:31.758Z,82.29
2024-02-16T02:26:59.471Z,82.30
2024-02-16T02:29:27.087Z,82.61
2024-02-16T02:31:54.888Z,82.28
2024-02-16T02:34:22.648Z,82.65
2024-02-16T02:36:50.322Z,82.64
2024-02-16T02:39:18.022Z,82.95
2024-02-16T02:41:47.090Z,82.95
2024-02-16T02:44:14.709Z,82.15
2024-02-16T02:46:42.342Z,82.89
2024-02-16T02:49:10.318Z,83.06
2024-02-16T02:51:38.075Z,82.29
2024-02-16T02:54:06.011Z,83.30
2024-02-16T02:56:33.856Z,82.80
2024-02-16T02:59:02.889Z,83.56
2024-02-16T03:01:30.837Z,82.69
2024-02-16T03:03:59.117Z,82.30
2024-02-16T03:06:26.867Z,83.63
2024-02-16T03:08:54.522Z,83.12
2024-02-16T03:11:22.692Z,82.97
2024-02-16T03:13:50.274Z,83.35
2024-02-16T03:16:19.264Z,83.09
2024-02-16T03:18:47.139Z,82.81
2024-02-16T03:21:17.639Z,83.92
2024-02-16T03:23:45.459Z,83.63
2024-02-16T03:26:16.854Z,83.34
2024-02-16T03:28:47.734Z,83.86
2024-02-16T03:31:24.362Z,83.38
2024-02-16T03:33:53.247Z,83.39
2024-02-16T03:36:21.567Z,83.00
2024-02-16T03:38:51.290Z,83.55
2024-02-16T03:41:21.355Z,83.38
2024-02-16T03:43:48.975Z,83.31
2024-02-16T03:46:16.893Z,83.74
2024-02-16T03:48:46.043Z,83.06
2024-02-16T03:51:14.077Z,83.28
2024-02-16T03:53:41.728Z,83.30
2024-02-16T03:56:09.510Z,83.66
2024-02-16T03:58:38.212Z,82.55
2024-02-16T04:01:07.884Z,83.94
2024-02-16T04:03:36.350Z,83.12
2024-02-16T04:06:06.156Z,82.14
2024-02-16T04:08:33.876Z,83.45
2024-02-16T04:11:01.706Z,83.02
2024-02-16T04:13:29.287Z,83.49
2024-02-16T04:15:57.002Z,82.61
2024-02-16T04:18:24.878Z,83.45
2024-02-16T04:20:52.622Z,82.45
2024-02-16T04:23:21.660Z,83.49
2024-02-16T04:25:49.249Z,83.42
2024-02-16T04:28:19.267Z,83.27
2024-02-16T04:30:47.042Z,82.70
2024-02-16T04:33:14.810Z,82.42
2024-02-16T04:35:42.429Z,83.32
2024-02-16T04:38:10.116Z,83.38
2024-02-16T04:40:39.432Z,82.83
2024-02-16T04:43:07.639Z,83.65
2024-02-16T04:45:36.603Z,83.20
2024-02-16T04:48:06.227Z,83.38
2024-02-16T04:50:34.377Z,84.11
2024-02-16T04:53:02.938Z,83.63
2024-02-16T04:55:30.941Z,84.21
2024-02-16T04:57:59.923Z,83.67
2024-02-16T05:00:28.537Z,84.30
2024-02-16T05:02:56.592Z,83.55
2024-02-16T05:05:25.754Z,83.53
2024-02-16T05:07:53.398Z,84.77
2024-02-16T05:10:21.317Z,84.29
2024-02-16T05:12:48.941Z,84.40
2024-02-16T05:15:18.757Z,83.92
2024-02-16T05:17:50.197Z,83.97
2024-02-16T05:20:18.193Z,83.80
2024-02-16T05:22:47.141Z,83.11
2024-02-16T05:25:15.285Z,82.92
2024-02-16T05:27:43.200Z,83.23
2024-02-16T05:30:14.097Z,83.26
2024-02-16T05:32:43.593Z,82.35
2024-02-16T05:35:14.250Z,83.64
2024-02-16T05:37:45.155Z,81.96
2024-02-16T05:40:22.898Z,83.21
2024-02-16T05:42:50.952Z,82.53
2024-02-16T05:45:18.874Z,83.27
2024-02-16T05:47:48.088Z,83.36
2024-02-16T05:50:16.529Z,82.78
2024-02-16T05:52:44.590Z,83.72
2024-02-16T05:55:12.941Z,83.31
2024-02-16T05:57:40.658Z,83.66
2024-02-16T06:00:10.275Z,82.45
2024-02-16T06:02:37.957Z,83.71
2024-02-16T06:05:07.911Z,83.20
2024-02-16T06:07:39.178Z,82.79
2024-02-16T06:10:11.736Z,83.21
2024-02-16T06:12:40.155Z,83.27
2024-02-16T06:15:08.574Z,83.50
2024-02-16T06:17:37.642Z,82.56
2024-02-16T06:20:10.542Z,82.73
2024-02-16T06:22:38.245Z,83.51
2024-02-16T06:25:06.494Z,82.87
2024-02-16T06:27:34.310Z,83.02
2024-02-16T06:30:02.199Z,83.08
2024-02-16T06:32:30.986Z,84.03
2024-02-16T06:34:58.715Z,83.67
2024-02-16T06:37:27.726Z,83.22
2024-02-16T06:39:55.359Z,84.23
2024-02-16T06:42:23.116Z,83.33
2024-02-16T06:44:50.885Z,83.93
2024-02-16T06:47:19.680Z,83.46
2024-02-16T06:49:48.354Z,83.49
2024-02-16T06:52:16.817Z,83.18
2024-02-16T06:54:46.370Z,83.24
2024-02-16T06:57:14.192Z,83.61
2024-02-16T06:59:42.575Z,83.96
2024-02-16T07:02:12.069Z,83.35
2024-02-16T07:04:41.763Z,83.56
2024-02-16T07:07:09.733Z,83.53
2024-02-16T07:09:37.660Z,83.94
2024-02-16T07:12:07.988Z,83.85
2024-02-16T07:14:36.225Z,83.98
2024-02-16T07:17:03.918Z,83.96
2024-02-16T07:19:31.771Z,83.27
2024-02-16T07:21:59.537Z,83.78
2024-02-16T07:24:28.655Z,83.33
2024-02-16T07:26:56.373Z,84.20
2024-02-16T07:29:25.697Z,84.00
2024-02-16T07:31:53.707Z,83.83
2024-02-16T07:34:21.841Z,83.92
2024-02-16T07:36:49.438Z,83.32
2024-02-16T07:39:17.213Z,83.81
2024-02-16T07:41:44.928Z,83.63
2024-02-16T07:44:12.519Z,83.28
2024-02-16T07:46:47.097Z,83.45
2024-02-16T07:49:15.098Z,82.87
2024-02-16T07:51:42.865Z,82.82
2024-02-16T07:54:10.610Z,83.53
2024-02-16T07:56:38.233Z,82.64
2024-02-16T07:59:05.876Z,82.12
2024-02-16T08:01:33.599Z,82.34
2024-02-16T08:04:05.236Z,82.41
2024-02-16T08:06:34.810Z,81.80
2024-02-16T08:09:02.643Z,81.13
2024-02-16T08:11:30.280Z,80.93
2024-02-16T08:14:01.432Z,81.92
2024-02-16T08:16:29.539Z,81.04
2024-02-16T08:21:48.088Z,81.03
2024-02-16T08:24:15.733Z,80.41
2024-02-16T08:26:43.298Z,79.85
2024-02-16T08:29:10.978Z,80.61
2024-02-16T08:31:38.569Z,80.55
2024-02-16T08:34:08.653Z,80.37
2024-02-16T08:36:36.513Z,80.56
2024-02-16T08:39:05.622Z,79.55
2024-02-16T08:41:33.307Z,80.33
2024-02-16T08:44:00.939Z,80.54
2024-02-16T08:46:28.572Z,79.73
2024-02-16T08:48:56.331Z,80.02
2024-02-16T08:51:24.107Z,79.88
2024-02-16T08:53:51.709Z,80.53
2024-02-16T08:56:20.689Z,80.03
2024-02-16T08:58:48.429Z,80.67
2024-02-16T09:01:16.915Z,79.45
2024-02-16T09:03:44.753Z,79.84
2024-02-16T09:06:13.983Z,80.26
2024-02-16T09:08:41.597Z,79.48
2024-02-16T09:11:09.257Z,79.75
2024-02-16T09:13:41.693Z,79.77
2024-02-16T09:16:09.844Z,80.07
2024-02-16T09:18:38.300Z,79.24
2024-02-16T09:21:06.550Z,78.60
2024-02-16T09:23:34.526Z,78.90
2024-02-16T09:26:02.649Z,78.58
2024-02-16T09:28:30.893Z,78.54
2024-02-16T09:31:00.075Z,78.75
2024-02-16T09:33:28.935Z,78.80
2024-02-16T09:35:56.861Z,78.84
2024-02-16T09:38:24.596Z,78.07
2024-02-16T09:40:52.572Z,78.31
2024-02-16T09:43:26.614Z,78.70
2024-02-16T09:45:55.887Z,77.95
2024-02-16T09:48:25.206Z,77.81
2024-02-16T09:50:53.523Z,77.99
2024-02-16T09:53:23.200Z,77.50
2024-02-16T09:55:51.526Z,76.71
2024-02-16T09:58:20.134Z,77.60
2024-02-16T10:00:52.640Z,76.94
2024-02-16T10:03:27.180Z,77.20
2024-02-16T10:05:56.199Z,76.81
2024-02-16T10:08:24.784Z,76.14
2024-02-16T10:11:03.554Z,76.84
2024-02-16T10:13:32.406Z,76.15
2024-02-16T10:16:11.248Z,75.87
2024-02-16T10:18:40.946Z,76.04
2024-02-16T10:21:11.140Z,76.04
2024-02-16T10:23:43.935Z,76.22
2024-02-16T10:26:12.543Z,75.62
2024-02-16T10:28:40.673Z,75.64
2024-02-16T10:31:08.686Z,75.70
2024-02-16T10:33:37.177Z,75.13
2024-02-16T10:36:09.205Z,74.13
2024-02-16T10:38:38.249Z,74.67
2024-02-16T10:41:06.973Z,74.96
2024-02-16T10:43:34.551Z,74.37
2024-02-16T10:46:02.986Z,74.76
2024-02-16T10:48:30.824Z,74.91
2024-02-16T10:50:59.059Z,75.06
2024-02-16T10:53:29.841Z,74.51
2024-02-16T10:55:59.720Z,74.90
2024-02-16T10:58:30.338Z,74.39
2024-02-16T11:00:59.452Z,73.98
2024-02-16T11:03:29.095Z,73.53
2024-02-16T11:05:59.373Z,73.46
2024-02-16T11:08:29.572Z,73.97
2024-02-16T11:10:59.109Z,73.77
2024-02-16T11:13:27.471Z,73.71
2024-02-16T11:15:59.037Z,73.79
2024-02-16T11:18:26.962Z,73.71
2024-02-16T11:20:56.409Z,73.79
2024-02-16T11:23:30.267Z,73.53
2024-02-16T11:26:02.867Z,74.33
2024-02-16T11:28:32.039Z,73.72
2024-02-16T11:31:01.887Z,73.45
2024-02-16T11:33:30.209Z,73.65
2024-02-16T11:35:58.463Z,73.37
2024-02-16T11:38:27.758Z,73.04
2024-02-16T11:40:58.893Z,72.63
2024-02-16T11:43:27.302Z,72.79
2024-02-16T11:45:55.779Z,72.40
2024-02-16T11:48:24.537Z,72.34
2024-02-16T11:51:01.188Z,72.43
2024-02-16T11:53:30.777Z,72.28
2024-02-16T11:55:58.769Z,73.10
2024-02-16T11:58:28.416Z,72.84
2024-02-16T12:01:00.850Z,72.07
2024-02-16T12:03:31.289Z,71.97
2024-02-16T12:06:02.574Z,72.49
2024-02-16T12:08:36.885Z,71.74
2024-02-16T12:11:08.331Z,71.70
2024-02-16T12:13:36.577Z,72.15
2024-02-16T12:16:05.024Z,72.42
2024-02-16T12:18:33.208Z,72.27
2024-02-16T12:21:02.656Z,72.46
2024-02-16T12:23:32.873Z,72.39
2024-02-16T12:26:02.765Z,71.49
2024-02-16T12:28:33.231Z,71.68
2024-02-16T12:31:05.276Z,71.59
2024-02-16T12:33:34.154Z,71.49
2024-02-16T12:36:02.683Z,71.04
2024-02-16T12:38:30.947Z,71.10
2024-02-16T12:40:59.286Z,69.47
2024-02-16T12:43:28.572Z,68.85
2024-02-16T12:45:56.242Z,68.46
2024-02-16T12:48:24.369Z,66.38
2024-02-16T12:50:53.920Z,64.56
2024-02-16T12:53:21.987Z,64.28
2024-02-16T12:55:49.812Z,63.14
2024-02-16T12:58:17.553Z,61.88
2024-02-16T13:00:46.666Z,61.88
2024-02-16T13:03:14.793Z,60.90
2024-02-16T13:05:44.734Z,61.45
2024-02-16T13:08:16.909Z,62.35
2024-02-16T13:10:45.172Z,62.30
2024-02-16T13:13:16.566Z,62.70
2024-02-16T13:15:50.197Z,63.67
2024-02-16T13:18:18.406Z,63.58
2024-02-16T13:20:46.353Z,63.81
2024-02-16T13:23:14.055Z,64.04
2024-02-16T13:25:44.135Z,64.44
2024-02-16T13:28:13.176Z,64.01
2024-02-16T13:30:44.453Z,64.46
2024-02-16T13:33:17.554Z,65.42
2024-02-16T13:35:45.792Z,65.10
2024-02-16T13:38:15.161Z,65.71
2024-02-16T13:40:44.168Z,65.95
2024-02-16T13:43:12.023Z,66.22
2024-02-16T13:45:53.002Z,66.56
2024-02-16T13:48:23.114Z,66.57
2024-02-16T13:50:51.924Z,66.30
2024-02-16T13:53:21.848Z,65.66
2024-02-16T13:55:50.330Z,66.21
2024-02-16T13:58:18.042Z,66.21
2024-02-16T14:00:46.088Z,66.67
2024-02-16T14:03:16.631Z,66.62
2024-02-16T14:05:47.149Z,66.54
2024-02-16T14:08:16.380Z,66.63
2024-02-16T14:10:44.855Z,66.53
2024-02-16T14:13:12.658Z,67.05
2024-02-16T14:15:40.443Z,66.73
2024-02-16T14:18:14.587Z,67.34
2024-02-16T14:20:47.177Z,67.29
2024-02-16T14:23:15.196Z,67.07
2024-02-16T14:25:42.884Z,66.96
2024-02-16T14:28:10.477Z,66.99
2024-02-16T14:30:38.239Z,67.13
2024-02-16T14:33:06.542Z,67.58
2024-02-16T14:35:37.763Z,68.73
2024-02-16T14:38:07.116Z,67.42
2024-02-16T14:40:34.953Z,67.77
2024-02-16T14:43:03.139Z,67.81
2024-02-16T14:45:31.205Z,68.53
2024-02-16T14:47:59.900Z,69.05
2024-02-16T14:50:27.736Z,69.30
2024-02-16T14:52:55.363Z,69.69
2024-02-16T14:55:24.602Z,70.01
2024-02-16T14:57:52.978Z,70.21
2024-02-16T15:00:21.439Z,69.89
2024-02-16T15:02:51.541Z,69.41
2024-02-16T15:05:21.799Z,69.82
2024-02-16T15:07:51.110Z,70.19
2024-02-16T15:10:19.018Z,69.92
2024-02-16T15:12:48.118Z,70.20
2024-02-16T15:15:16.187Z,70.52
2024-02-16T15:17:43.908Z,71.06
2024-02-16T15:20:12.120Z,70.55
2024-02-16T15:22:48.185Z,70.92
2024-02-16T15:25:21.022Z,70.43
2024-02-16T15:27:50.050Z,70.99
2024-02-16T15:30:18.005Z,71.13
2024-02-16T15:32:45.757Z,70.68
2024-02-16T15:35:13.424Z,70.39
2024-02-16T15:37:41.258Z,70.73
2024-02-16T15:40:09.913Z,70.77
2024-02-16T15:42:37.651Z,71.21
2024-02-16T15:45:07.763Z,71.55
2024-02-16T15:47:35.425Z,71.31
2024-02-16T15:50:03.208Z,72.12
2024-02-16T15:52:30.822Z,71.76
2024-02-16T15:54:58.530Z,71.96
2024-02-16T15:57:26.137Z,71.64
2024-02-16T15:59:53.825Z,72.64
2024-02-16T16:02:22.770Z,72.86
2024-02-16T16:04:50.580Z,72.64
2024-02-16T16:07:19.332Z,73.16
2024-02-16T16:09:47.013Z,72.87
2024-02-16T16:12:14.732Z,73.38
2024-02-16T16:14:42.415Z,73.31
2024-02-16T16:17:10.025Z,73.30
2024-02-16T16:19:39.025Z,74.36
2024-02-16T16:22:06.751Z,73.69
2024-02-16T16:24:34.456Z,74.10
2024-02-16T16:27:02.140Z,74.60
2024-02-16T16:29:29.724Z,74.71
2024-02-16T16:32:00.146Z,74.93
2024-02-16T16:34:30.398Z,75.18
2024-02-16T16:36:59.818Z,75.26
2024-02-16T16:39:27.550Z,75.27
2024-02-16T16:41:56.124Z,75.29
2024-02-16T16:44:24.244Z,75.58
2024-02-16T16:46:51.995Z,76.07
2024-02-16T16:49:19.841Z,76.41
2024-02-16T16:51:47.646Z,76.33
2024-02-16T16:54:18.039Z,76.27
2024-02-16T16:56:45.653Z,76.67
2024-02-16T16:59:13.656Z,76.65
2024-02-16T17:01:41.315Z,76.39
2024-02-16T17:04:08.992Z,76.88
2024-02-16T17:06:37.936Z,78.07
2024-02-16T17:09:05.840Z,78.47
2024-02-16T17:11:38.304Z,79.20
2024-02-16T17:14:08.869Z,79.44
2024-02-16T17:16:36.635Z,79.21
2024-02-16T17:19:05.073Z,80.22
2024-02-16T17:21:33.055Z,80.64
2024-02-16T17:24:00.895Z,81.48
2024-02-16T17:26:28.592Z,81.69
2024-02-16T17:28:58.069Z,81.75
2024-02-16T17:31:25.712Z,82.56
2024-02-16T17:33:53.495Z,82.57
2024-02-16T17:36:21.329Z,82.31
2024-02-16T17:38:48.996Z,82.53
2024-02-16T17:41:22.924Z,83.11
2024-02-16T17:43:50.555Z,83.35
2024-02-16T17:46:19.714Z,82.97
2024-02-16T17:48:47.705Z,83.63
2024-02-16T17:51:15.493Z,84.52
2024-02-16T17:53:43.098Z,84.84
2024-02-16T17:56:11.511Z,84.86
2024-02-16T17:58:39.169Z,85.24
2024-02-16T18:01:06.852Z,85.78
2024-02-16T18:03:35.965Z,85.64
2024-02-16T18:06:03.976Z,85.95
2024-02-16T18:08:31.821Z,86.21
2024-02-16T18:10:59.679Z,87.03
2024-02-16T18:13:27.411Z,87.36
2024-02-16T18:15:56.233Z,86.44
2024-02-16T18:18:24.220Z,87.33
2024-02-16T18:20:53.732Z,87.71
2024-02-16T18:23:23.295Z,88.40
2024-02-16T18:25:52.062Z,88.99
2024-02-16T18:28:26.018Z,88.78
2024-02-16T18:30:57.880Z,88.10
2024-02-16T18:33:26.429Z,88.99
2024-02-16T18:35:55.577Z,88.28
2024-02-16T18:38:23.290Z,88.76
2024-02-16T18:40:51.124Z,88.79
2024-02-16T18:43:18.779Z,89.36
2024-02-16T18:45:46.568Z,88.94
2024-02-16T18:48:14.540Z,89.37
2024-02-16T18:50:42.824Z,89.24
2024-02-16T18:53:12.140Z,89.67
2024-02-16T18:55:45.553Z,89.74
2024-02-16T18:58:13.561Z,89.83
2024-02-16T19:00:41.359Z,90.11
2024-02-16T19:03:09.015Z,89.50
2024-02-16T19:05:37.106Z,89.78
2024-02-16T19:08:06.364Z,90.14
2024-02-16T19:10:39.462Z,89.76
2024-02-16T19:13:07.125Z,90.11
2024-02-16T19:15:34.752Z,89.99
2024-02-16T19:18:04.382Z,90.18
2024-02-16T19:20:32.906Z,90.25
2024-02-16T19:23:00.590Z,90.09
2024-02-16T19:25:28.310Z,90.12
2024-02-16T19:27:59.317Z,89.96
2024-02-16T19:30:27.827Z,90.37
2024-02-16T19:32:55.572Z,90.85
2024-02-16T19:35:23.876Z,91.25
2024-02-16T19:37:51.538Z,90.58
2024-02-16T19:40:19.309Z,90.68
2024-02-16T19:42:47.543Z,90.73
2024-02-16T19:45:25.656Z,91.13
2024-02-16T19:47:56.920Z,91.68
2024-02-16T19:50:24.652Z,91.73
2024-02-16T19:52:52.318Z,91.42
2024-02-16T19:55:20.765Z,91.23
2024-02-16T19:57:51.013Z,91.21
2024-02-16T20:00:21.507Z,91.10
2024-02-16T20:02:49.150Z,91.54
2024-02-16T20:05:19.162Z,91.53
2024-02-16T20:07:47.369Z,91.78
2024-02-16T20:10:16.260Z,91.87
2024-02-16T20:12:44.195Z,91.66
2024-02-16T20:15:12.484Z,91.75
2024-02-16T20:17:42.440Z,91.75
2024-02-16T20:20:11.403Z,91.09
2024-02-16T20:22:40.337Z,90.99
2024-02-16T20:25:08.619Z,91.23
2024-02-16T20:27:37.696Z,91.29
2024-02-16T20:30:06.089Z,91.08
2024-02-16T20:32:33.728Z,91.43
2024-02-16T20:35:05.513Z,91.60
2024-02-16T20:37:33.754Z,91.36
2024-02-16T20:40:02.990Z,91.90
2024-02-16T20:42:33.127Z,91.48
2024-02-16T20:45:01.000Z,91.97
2024-02-16T20:47:29.138Z,91.77
2024-02-16T20:49:59.363Z,91.53
2024-02-16T20:52:28.393Z,91.20
2024-02-16T20:54:56.026Z,92.03
2024-02-16T20:57:23.661Z,91.70
2024-02-16T20:59:51.292Z,92.06
2024-02-16T21:02:20.584Z,91.66
2024-02-16T21:04:48.735Z,91.98
2024-02-16T21:07:16.580Z,92.20
2024-02-16T21:09:45.648Z,91.88
2024-02-16T21:12:13.573Z,92.17
2024-02-16T21:14:41.643Z,92.03
2024-02-16T21:17:09.762Z,92.26
2024-02-16T21:19:37.397Z,92.18
2024-02-16T21:22:05.106Z,92.51
2024-02-16T21:24:32.782Z,92.64
2024-02-16T21:27:01.870Z,91.96
2024-02-16T21:29:29.528Z,92.20
2024-02-16T21:31:57.155Z,91.83
2024-02-16T21:34:24.857Z,91.57
2024-02-16T21:36:54.708Z,91.06
2024-02-16T21:39:22.482Z,91.00
2024-02-16T21:41:50.198Z,90.21
2024-02-16T21:44:19.178Z,88.64
2024-02-16T21:46:46.784Z,88.25
2024-02-16T21:49:14.597Z,87.55
2024-02-16T21:51:43.466Z,87.78
2024-02-16T21:54:11.843Z,87.55
2024-02-16T21:56:39.578Z,87.22
2024-02-16T21:59:07.213Z,87.72
2024-02-16T22:01:36.203Z,87.72
2024-02-16T22:04:04.316Z,87.22
2024-02-16T22:06:32.325Z,85.94
2024-02-16T22:09:00.394Z,86.77
2024-02-16T22:11:28.455Z,86.77
2024-02-16T22:13:56.349Z,87.03
2024-02-16T22:16:23.943Z,86.79
2024-02-16T22:18:53.367Z,85.42
2024-02-16T22:21:24.404Z,85.85
2024-02-16T22:23:57.784Z,86.62
2024-02-16T22:26:25.597Z,86.29
2024-02-16T22:28:53.449Z,86.56
2024-02-16T22:31:22.791Z,86.33
2024-02-16T22:33:53.138Z,86.09
2024-02-16T22:36:21.014Z,85.96
2024-02-16T22:38:48.637Z,85.84
2024-02-16T22:41:18.966Z,84.85
2024-02-16T22:43:46.657Z,84.90
2024-02-16T22:46:14.284Z,84.92
2024-02-16T22:48:42.028Z,83.77
2024-02-16T22:51:11.343Z,83.82
2024-02-16T22:53:39.553Z,83.75
2024-02-16T22:56:09.101Z,83.34
2024-02-16T22:58:36.736Z,82.15
2024-02-16T23:01:05.356Z,82.74
2024-02-16T23:03:33.215Z,82.59
2024-02-16T23:06:03.694Z,82.31
2024-02-16T23:08:33.792Z,83.17
2024-02-16T23:11:01.807Z,82.71
2024-02-16T23:13:29.416Z,82.93
2024-02-16T23:15:57.019Z,82.59
2024-02-16T23:18:26.101Z,82.10
2024-02-16T23:20:53.977Z,82.29
2024-02-16T23:23:22.182Z,82.31
2024-02-16T23:25:51.283Z,82.56
2024-02-16T23:28:19.172Z,82.62
2024-02-16T23:30:47.195Z,82.74
2024-02-16T23:33:15.129Z,82.21
2024-02-16T23:35:43.045Z,81.43
2024-02-16T23:38:12.431Z,81.44
2024-02-16T23:40:41.312Z,82.38
2024-02-16T23:43:13.114Z,82.22
2024-02-16T23:45:40.951Z,81.95
2024-02-16T23:48:09.765Z,81.58
2024-02-16T23:50:37.717Z,81.76
2024-02-16T23:53:05.616Z,82.13
2024-02-16T23:55:33.461Z,81.56
2024-02-16T23:58:01.330Z,81.25
